WZZ904 LZKZ-ENBR
Flight info
| Callsign | WZZ904 |
|---|---|
| Flight time | 2h 11m |
| Altitude | 28000 |
| Route | MARKA T710 IBEKA/N0435F360 T710 MAPIK DCT BINKA/N0434F380 DCT SONAL DCT BADAB |
| Aircraft | A320/M-SDE3FGHIRWY/LB1 |
Departure
| Time | 2026-04-22 17:06 |
|---|---|
| Airport | Košice International Airport (LZKZ) |
Arrival
| Time | 2026-04-22 19:17 |
|---|---|
| Airport | Bergen Airport, Flesland (ENBR) |
| Time | Latitude | Longitude | Altitude | Speed | Heading |
|---|---|---|---|---|---|
| 2026-04-22 16:44 | 48.67203 | 21.23990 | 764 ft | 0 kts | 238° |
| 2026-04-22 16:56 | 48.67204 | 21.23991 | 766 ft | 0 kts | 238° |
| 2026-04-22 16:56 | 48.67203 | 21.23991 | 764 ft | 0 kts | 238° |
| 2026-04-22 16:59 | 48.67203 | 21.23989 | 764 ft | 1 kts | 238° |
| 2026-04-22 16:59 | 48.67200 | 21.23973 | 765 ft | 3 kts | 261° |
| 2026-04-22 17:00 | 48.67212 | 21.23949 | 765 ft | 2 kts | 348° |
| 2026-04-22 17:00 | 48.67247 | 21.24020 | 764 ft | 7 kts | 69° |
| 2026-04-22 17:00 | 48.67259 | 21.24088 | 763 ft | 8 kts | 81° |
| 2026-04-22 17:01 | 48.67262 | 21.24190 | 762 ft | 11 kts | 99° |
| 2026-04-22 17:01 | 48.67244 | 21.24323 | 761 ft | 13 kts | 101° |
| 2026-04-22 17:01 | 48.67187 | 21.24420 | 764 ft | 13 kts | 175° |
| 2026-04-22 17:01 | 48.67093 | 21.24394 | 765 ft | 15 kts | 193° |
| 2026-04-22 17:02 | 48.66978 | 21.24352 | 765 ft | 19 kts | 193° |
| 2026-04-22 17:02 | 48.66833 | 21.24299 | 765 ft | 24 kts | 193° |
| 2026-04-22 17:02 | 48.66651 | 21.24234 | 763 ft | 29 kts | 193° |
| 2026-04-22 17:02 | 48.66425 | 21.24155 | 756 ft | 36 kts | 193° |
| 2026-04-22 17:03 | 48.66166 | 21.24064 | 756 ft | 40 kts | 192° |
| 2026-04-22 17:03 | 48.65896 | 21.23972 | 756 ft | 38 kts | 193° |
| 2026-04-22 17:03 | 48.65626 | 21.23881 | 751 ft | 41 kts | 192° |
| 2026-04-22 17:03 | 48.65356 | 21.23789 | 754 ft | 33 kts | 192° |
| 2026-04-22 17:04 | 48.65154 | 21.23719 | 750 ft | 23 kts | 193° |
| 2026-04-22 17:04 | 48.65043 | 21.23690 | 754 ft | 14 kts | 179° |
| 2026-04-22 17:04 | 48.64970 | 21.23687 | 752 ft | 9 kts | 210° |
| 2026-04-22 17:04 | 48.64993 | 21.23654 | 754 ft | 7 kts | 18° |
| 2026-04-22 17:05 | 48.65019 | 21.23667 | 755 ft | 4 kts | 19° |
| 2026-04-22 17:05 | 48.65054 | 21.23680 | 757 ft | 8 kts | 12° |
| 2026-04-22 17:05 | 48.65322 | 21.23770 | 755 ft | 73 kts | 13° |
| 2026-04-22 17:05 | 48.66002 | 21.24015 | 753 ft | 124 kts | 13° |
| 2026-04-22 17:06 | 48.66946 | 21.24378 | 937 ft | 148 kts | 17° |
| 2026-04-22 17:06 | 48.67906 | 21.24787 | 1622 ft | 142 kts | 14° |
| 2026-04-22 17:06 | 48.68865 | 21.25152 | 2260 ft | 142 kts | 10° |
| 2026-04-22 17:06 | 48.69862 | 21.25478 | 2670 ft | 155 kts | 10° |
| 2026-04-22 17:07 | 48.70997 | 21.25843 | 2951 ft | 178 kts | 10° |
| 2026-04-22 17:07 | 48.72281 | 21.26262 | 3328 ft | 197 kts | 10° |
| 2026-04-22 17:07 | 48.73627 | 21.26714 | 4136 ft | 198 kts | 11° |
| 2026-04-22 17:07 | 48.74978 | 21.27177 | 4958 ft | 200 kts | 11° |
| 2026-04-22 17:08 | 48.76362 | 21.27482 | 5680 ft | 203 kts | 352° |
| 2026-04-22 17:08 | 48.77609 | 21.26509 | 6342 ft | 214 kts | 314° |
| 2026-04-22 17:08 | 48.78318 | 21.24363 | 6697 ft | 243 kts | 291° |
| 2026-04-22 17:08 | 48.78772 | 21.21767 | 7169 ft | 263 kts | 285° |
| 2026-04-22 17:09 | 48.79146 | 21.19014 | 7949 ft | 269 kts | 284° |
| 2026-04-22 17:09 | 48.79505 | 21.16210 | 8788 ft | 273 kts | 284° |
| 2026-04-22 17:09 | 48.79756 | 21.14293 | 9361 ft | 275 kts | 284° |
| 2026-04-22 17:09 | 48.80280 | 21.10495 | 10331 ft | 284 kts | 285° |
| 2026-04-22 17:10 | 48.80771 | 21.07464 | 10565 ft | 307 kts | 288° |
| 2026-04-22 17:10 | 48.81394 | 21.04287 | 11028 ft | 319 kts | 290° |
| 2026-04-22 17:10 | 48.82075 | 21.01055 | 11700 ft | 325 kts | 290° |
| 2026-04-22 17:10 | 48.82779 | 20.97770 | 12375 ft | 329 kts | 291° |
| 2026-04-22 17:11 | 48.83490 | 20.94440 | 13050 ft | 334 kts | 291° |
| 2026-04-22 17:11 | 48.84202 | 20.91049 | 13709 ft | 340 kts | 291° |
| 2026-04-22 17:11 | 48.84916 | 20.87605 | 14280 ft | 344 kts | 290° |
| 2026-04-22 17:11 | 48.85633 | 20.84108 | 14859 ft | 349 kts | 290° |
| 2026-04-22 17:12 | 48.86354 | 20.80569 | 15439 ft | 353 kts | 290° |
| 2026-04-22 17:12 | 48.87083 | 20.76978 | 15996 ft | 357 kts | 290° |
| 2026-04-22 17:12 | 48.87816 | 20.73352 | 16594 ft | 361 kts | 290° |
| 2026-04-22 17:12 | 48.88610 | 20.69721 | 17165 ft | 363 kts | 296° |
| 2026-04-22 17:13 | 48.89783 | 20.66327 | 17743 ft | 362 kts | 307° |
| 2026-04-22 17:13 | 48.91324 | 20.63291 | 18325 ft | 364 kts | 314° |
| 2026-04-22 17:13 | 48.92943 | 20.60313 | 18830 ft | 367 kts | 314° |
| 2026-04-22 17:13 | 48.94573 | 20.57292 | 19352 ft | 371 kts | 314° |
| 2026-04-22 17:14 | 48.96189 | 20.54283 | 19869 ft | 374 kts | 314° |
| 2026-04-22 17:14 | 48.97864 | 20.51152 | 20371 ft | 378 kts | 314° |
| 2026-04-22 17:14 | 48.99534 | 20.48027 | 20867 ft | 382 kts | 314° |
| 2026-04-22 17:14 | 49.01220 | 20.44867 | 21339 ft | 386 kts | 314° |
| 2026-04-22 17:15 | 49.01769 | 20.43839 | 21491 ft | 387 kts | 314° |
| 2026-04-22 17:15 | 49.04613 | 20.38508 | 22255 ft | 393 kts | 314° |
| 2026-04-22 17:15 | 49.06348 | 20.35263 | 22689 ft | 396 kts | 315° |
| 2026-04-22 17:15 | 49.08158 | 20.32071 | 23135 ft | 399 kts | 318° |
| 2026-04-22 17:16 | 49.10055 | 20.28960 | 23575 ft | 401 kts | 320° |
| 2026-04-22 17:16 | 49.12006 | 20.25887 | 23948 ft | 404 kts | 320° |
| 2026-04-22 17:16 | 49.13985 | 20.22813 | 24321 ft | 408 kts | 321° |
| 2026-04-22 17:16 | 49.15978 | 20.19702 | 24691 ft | 411 kts | 320° |
| 2026-04-22 17:17 | 49.17977 | 20.16541 | 25064 ft | 415 kts | 320° |
| 2026-04-22 17:17 | 49.19975 | 20.13339 | 25405 ft | 418 kts | 320° |
| 2026-04-22 17:17 | 49.21982 | 20.10095 | 25727 ft | 421 kts | 320° |
| 2026-04-22 17:17 | 49.24050 | 20.06914 | 26113 ft | 422 kts | 323° |
| 2026-04-22 17:18 | 49.26195 | 20.03832 | 26495 ft | 424 kts | 325° |
| 2026-04-22 17:18 | 49.27647 | 20.01823 | 26736 ft | 425 kts | 326° |
| 2026-04-22 17:18 | 49.29864 | 19.98803 | 27094 ft | 428 kts | 326° |
| 2026-04-22 17:18 | 49.32100 | 19.95758 | 27448 ft | 432 kts | 326° |
| 2026-04-22 17:19 | 49.36598 | 19.89533 | 28117 ft | 439 kts | 325° |
| 2026-04-22 17:19 | 49.41123 | 19.83137 | 28807 ft | 445 kts | 325° |
| 2026-04-22 17:20 | 49.45700 | 19.76612 | 29491 ft | 452 kts | 325° |
| 2026-04-22 17:20 | 49.50343 | 19.69987 | 30169 ft | 458 kts | 326° |
| 2026-04-22 17:21 | 49.52686 | 19.66654 | 30448 ft | 460 kts | 326° |
| 2026-04-22 17:21 | 49.57407 | 19.59934 | 31073 ft | 464 kts | 325° |
| 2026-04-22 17:22 | 49.62118 | 19.53175 | 32028 ft | 460 kts | 324° |
| 2026-04-22 17:22 | 49.64447 | 19.49816 | 32543 ft | 458 kts | 324° |
| 2026-04-22 17:22 | 49.69073 | 19.43157 | 33501 ft | 454 kts | 324° |
| 2026-04-22 17:23 | 49.71374 | 19.39842 | 33987 ft | 451 kts | 323° |
| 2026-04-22 17:23 | 49.75919 | 19.33286 | 34774 ft | 449 kts | 323° |
| 2026-04-22 17:23 | 49.78200 | 19.29988 | 35099 ft | 448 kts | 323° |
| 2026-04-22 17:24 | 49.80479 | 19.26693 | 35439 ft | 447 kts | 323° |
| 2026-04-22 17:24 | 49.82749 | 19.23408 | 35766 ft | 446 kts | 323° |
| 2026-04-22 17:24 | 49.85017 | 19.20121 | 36069 ft | 446 kts | 322° |
| 2026-04-22 17:24 | 49.87288 | 19.16825 | 36161 ft | 446 kts | 322° |
| 2026-04-22 17:25 | 49.91806 | 19.10244 | 36167 ft | 445 kts | 322° |
| 2026-04-22 17:25 | 49.96323 | 19.03647 | 36167 ft | 445 kts | 322° |
| 2026-04-22 17:26 | 50.00829 | 18.97043 | 36154 ft | 446 kts | 322° |
| 2026-04-22 17:26 | 50.05359 | 18.90464 | 36177 ft | 445 kts | 324° |
| 2026-04-22 17:27 | 50.10000 | 18.84103 | 36187 ft | 444 kts | 325° |
| 2026-04-22 17:27 | 50.14669 | 18.77782 | 36183 ft | 445 kts | 324° |
| 2026-04-22 17:28 | 50.19312 | 18.71390 | 36191 ft | 446 kts | 324° |
| 2026-04-22 17:28 | 50.23945 | 18.64947 | 36176 ft | 446 kts | 324° |
| 2026-04-22 17:29 | 50.28540 | 18.58526 | 36187 ft | 446 kts | 324° |
| 2026-04-22 17:29 | 50.33201 | 18.52019 | 36168 ft | 446 kts | 324° |
| 2026-04-22 17:30 | 50.37806 | 18.45587 | 36181 ft | 446 kts | 324° |
| 2026-04-22 17:30 | 50.42439 | 18.39089 | 36193 ft | 447 kts | 324° |
| 2026-04-22 17:31 | 50.47068 | 18.32570 | 36191 ft | 447 kts | 324° |
| 2026-04-22 17:31 | 50.51693 | 18.26045 | 36196 ft | 447 kts | 324° |
| 2026-04-22 17:32 | 50.56617 | 18.20255 | 36188 ft | 441 kts | 331° |
| 2026-04-22 17:32 | 50.61611 | 18.14652 | 36193 ft | 441 kts | 330° |
| 2026-04-22 17:33 | 50.66612 | 18.09022 | 36182 ft | 441 kts | 331° |
| 2026-04-22 17:33 | 50.71605 | 18.03375 | 36169 ft | 442 kts | 331° |
| 2026-04-22 17:34 | 50.76598 | 17.97714 | 36176 ft | 442 kts | 330° |
| 2026-04-22 17:34 | 50.81610 | 17.92015 | 36170 ft | 442 kts | 330° |
| 2026-04-22 17:35 | 50.86587 | 17.86345 | 36184 ft | 443 kts | 330° |
| 2026-04-22 17:35 | 50.91549 | 17.80681 | 36169 ft | 443 kts | 330° |
| 2026-04-22 17:36 | 50.96544 | 17.74956 | 36177 ft | 443 kts | 331° |
| 2026-04-22 17:36 | 51.01539 | 17.69221 | 36171 ft | 443 kts | 331° |
| 2026-04-22 17:37 | 51.06541 | 17.63462 | 36182 ft | 444 kts | 331° |
| 2026-04-22 17:37 | 51.11538 | 17.57688 | 36184 ft | 444 kts | 331° |
| 2026-04-22 17:38 | 51.16541 | 17.51908 | 36185 ft | 444 kts | 331° |
| 2026-04-22 17:38 | 51.21542 | 17.46107 | 36166 ft | 445 kts | 331° |
| 2026-04-22 17:39 | 51.26538 | 17.40285 | 36161 ft | 445 kts | 331° |
| 2026-04-22 17:40 | 51.34040 | 17.31514 | 36166 ft | 446 kts | 331° |
| 2026-04-22 17:40 | 51.39053 | 17.25633 | 36172 ft | 447 kts | 331° |
| 2026-04-22 17:41 | 51.44027 | 17.19781 | 36180 ft | 447 kts | 331° |
| 2026-04-22 17:41 | 51.49034 | 17.13871 | 36188 ft | 447 kts | 331° |
| 2026-04-22 17:42 | 51.54046 | 17.07951 | 36151 ft | 447 kts | 331° |
| 2026-04-22 17:42 | 51.59067 | 17.02014 | 36157 ft | 448 kts | 331° |
| 2026-04-22 17:43 | 51.64087 | 16.96056 | 36170 ft | 449 kts | 331° |
| 2026-04-22 17:43 | 51.69109 | 16.90048 | 36179 ft | 450 kts | 331° |
| 2026-04-22 17:44 | 51.74130 | 16.84034 | 36188 ft | 450 kts | 331° |
| 2026-04-22 17:44 | 51.79155 | 16.78011 | 36188 ft | 450 kts | 331° |
| 2026-04-22 17:45 | 51.84177 | 16.71971 | 36163 ft | 450 kts | 331° |
| 2026-04-22 17:45 | 51.89204 | 16.65909 | 36171 ft | 451 kts | 331° |
| 2026-04-22 17:46 | 51.94239 | 16.59824 | 36183 ft | 452 kts | 331° |
| 2026-04-22 17:46 | 51.99240 | 16.53765 | 36191 ft | 452 kts | 331° |
| 2026-04-22 17:47 | 52.04275 | 16.47640 | 36201 ft | 452 kts | 330° |
| 2026-04-22 17:47 | 52.09303 | 16.41504 | 36203 ft | 452 kts | 330° |
| 2026-04-22 17:48 | 52.13522 | 16.36352 | 36163 ft | 453 kts | 330° |
| 2026-04-22 17:48 | 52.19370 | 16.29177 | 36186 ft | 454 kts | 330° |
| 2026-04-22 17:49 | 52.24412 | 16.22967 | 36191 ft | 454 kts | 330° |
| 2026-04-22 17:49 | 52.29452 | 16.16744 | 36207 ft | 454 kts | 330° |
| 2026-04-22 17:50 | 52.34489 | 16.10504 | 36206 ft | 455 kts | 330° |
| 2026-04-22 17:50 | 52.39530 | 16.04250 | 36210 ft | 455 kts | 330° |
| 2026-04-22 17:51 | 52.44575 | 15.97985 | 36208 ft | 455 kts | 330° |
| 2026-04-22 17:51 | 52.49614 | 15.91691 | 36204 ft | 456 kts | 330° |
| 2026-04-22 17:52 | 52.54658 | 15.85366 | 36213 ft | 456 kts | 330° |
| 2026-04-22 17:52 | 52.59670 | 15.79062 | 36215 ft | 456 kts | 330° |
| 2026-04-22 17:53 | 52.64657 | 15.72777 | 36222 ft | 456 kts | 330° |
| 2026-04-22 17:53 | 52.69752 | 15.66349 | 36209 ft | 457 kts | 330° |
| 2026-04-22 17:54 | 52.74805 | 15.59950 | 36193 ft | 457 kts | 330° |
| 2026-04-22 17:54 | 52.79850 | 15.53537 | 36212 ft | 458 kts | 330° |
| 2026-04-22 17:55 | 52.84082 | 15.48147 | 36224 ft | 458 kts | 330° |
| 2026-04-22 17:55 | 52.89943 | 15.40656 | 36230 ft | 458 kts | 329° |
| 2026-04-22 17:56 | 52.94984 | 15.34180 | 36223 ft | 458 kts | 329° |
| 2026-04-22 17:56 | 53.00025 | 15.27691 | 36223 ft | 459 kts | 329° |
| 2026-04-22 17:57 | 53.05074 | 15.21182 | 36215 ft | 459 kts | 329° |
| 2026-04-22 17:57 | 53.10118 | 15.14651 | 36224 ft | 459 kts | 329° |
| 2026-04-22 17:58 | 53.15122 | 15.08160 | 36231 ft | 459 kts | 329° |
| 2026-04-22 17:58 | 53.20155 | 15.01614 | 36234 ft | 459 kts | 329° |
| 2026-04-22 17:59 | 53.25179 | 14.95050 | 36233 ft | 459 kts | 329° |
| 2026-04-22 17:59 | 53.30203 | 14.88455 | 36240 ft | 459 kts | 329° |
| 2026-04-22 18:00 | 53.34374 | 14.82973 | 36231 ft | 459 kts | 329° |
| 2026-04-22 18:00 | 53.40242 | 14.75245 | 36243 ft | 458 kts | 329° |
| 2026-04-22 18:01 | 53.45244 | 14.68631 | 36241 ft | 458 kts | 329° |
| 2026-04-22 18:01 | 53.50208 | 14.62042 | 36241 ft | 458 kts | 329° |
| 2026-04-22 18:02 | 53.55197 | 14.55393 | 36223 ft | 458 kts | 329° |
| 2026-04-22 18:02 | 53.60201 | 14.48731 | 36225 ft | 459 kts | 329° |
| 2026-04-22 18:03 | 53.65197 | 14.42046 | 36224 ft | 459 kts | 329° |
| 2026-04-22 18:03 | 53.70187 | 14.35332 | 36234 ft | 459 kts | 328° |
| 2026-04-22 18:04 | 53.75171 | 14.28596 | 36243 ft | 458 kts | 328° |
| 2026-04-22 18:04 | 53.80181 | 14.21942 | 36219 ft | 457 kts | 330° |
| 2026-04-22 18:05 | 53.85252 | 14.15450 | 36226 ft | 457 kts | 330° |
| 2026-04-22 18:05 | 53.90332 | 14.08946 | 36231 ft | 458 kts | 330° |
| 2026-04-22 18:06 | 53.95389 | 14.02370 | 36225 ft | 458 kts | 329° |
| 2026-04-22 18:06 | 54.00401 | 13.95803 | 36247 ft | 457 kts | 329° |
| 2026-04-22 18:07 | 54.04617 | 13.90266 | 36253 ft | 457 kts | 329° |
| 2026-04-22 18:07 | 54.09653 | 13.83637 | 36241 ft | 457 kts | 329° |
| 2026-04-22 18:08 | 54.14650 | 13.77050 | 36238 ft | 457 kts | 329° |
| 2026-04-22 18:08 | 54.19689 | 13.70393 | 36239 ft | 458 kts | 329° |
| 2026-04-22 18:09 | 54.24721 | 13.63713 | 36230 ft | 458 kts | 329° |
| 2026-04-22 18:09 | 54.29748 | 13.57019 | 36243 ft | 457 kts | 329° |
| 2026-04-22 18:10 | 54.34767 | 13.50319 | 36253 ft | 457 kts | 328° |
| 2026-04-22 18:10 | 54.39778 | 13.43602 | 36247 ft | 457 kts | 328° |
| 2026-04-22 18:11 | 54.44785 | 13.36872 | 36244 ft | 457 kts | 328° |
| 2026-04-22 18:11 | 54.49802 | 13.30115 | 36250 ft | 458 kts | 328° |
| 2026-04-22 18:12 | 54.54787 | 13.23376 | 36223 ft | 458 kts | 328° |
| 2026-04-22 18:12 | 54.59790 | 13.16583 | 36252 ft | 457 kts | 328° |
| 2026-04-22 18:13 | 54.64784 | 13.09780 | 36255 ft | 457 kts | 328° |
| 2026-04-22 18:13 | 54.69775 | 13.02960 | 36241 ft | 457 kts | 328° |
| 2026-04-22 18:14 | 54.74764 | 12.96127 | 36244 ft | 457 kts | 328° |
| 2026-04-22 18:14 | 54.79754 | 12.89274 | 36249 ft | 458 kts | 328° |
| 2026-04-22 18:15 | 54.84737 | 12.82409 | 36234 ft | 458 kts | 327° |
| 2026-04-22 18:15 | 54.89722 | 12.75506 | 36251 ft | 457 kts | 328° |
| 2026-04-22 18:16 | 54.94697 | 12.68621 | 36262 ft | 457 kts | 327° |
| 2026-04-22 18:16 | 54.99668 | 12.61701 | 36249 ft | 457 kts | 327° |
| 2026-04-22 18:17 | 55.04603 | 12.54808 | 36247 ft | 458 kts | 327° |
| 2026-04-22 18:17 | 55.09576 | 12.47858 | 36251 ft | 458 kts | 327° |
| 2026-04-22 18:18 | 55.14548 | 12.40877 | 36256 ft | 458 kts | 327° |
| 2026-04-22 18:18 | 55.19507 | 12.33867 | 36255 ft | 458 kts | 327° |
| 2026-04-22 18:19 | 55.24469 | 12.26846 | 36262 ft | 458 kts | 327° |
| 2026-04-22 18:19 | 55.26951 | 12.23333 | 36392 ft | 459 kts | 327° |
| 2026-04-22 18:19 | 55.29424 | 12.19830 | 36891 ft | 451 kts | 327° |
| 2026-04-22 18:19 | 55.31816 | 12.16417 | 37782 ft | 439 kts | 326° |
| 2026-04-22 18:20 | 55.34188 | 12.13032 | 38111 ft | 439 kts | 326° |
| 2026-04-22 18:20 | 55.36569 | 12.09640 | 38233 ft | 443 kts | 326° |
| 2026-04-22 18:20 | 55.38984 | 12.06205 | 38246 ft | 449 kts | 326° |
| 2026-04-22 18:21 | 55.43877 | 11.99219 | 38257 ft | 455 kts | 326° |
| 2026-04-22 18:21 | 55.48791 | 11.92134 | 38246 ft | 457 kts | 326° |
| 2026-04-22 18:22 | 55.53704 | 11.85032 | 38261 ft | 457 kts | 326° |
| 2026-04-22 18:22 | 55.58625 | 11.77931 | 38229 ft | 456 kts | 326° |
| 2026-04-22 18:23 | 55.63538 | 11.70804 | 38253 ft | 457 kts | 325° |
| 2026-04-22 18:23 | 55.68460 | 11.63643 | 38262 ft | 458 kts | 325° |
| 2026-04-22 18:24 | 55.75831 | 11.52862 | 38268 ft | 458 kts | 325° |
| 2026-04-22 18:25 | 55.83176 | 11.42062 | 38274 ft | 458 kts | 325° |
| 2026-04-22 18:25 | 55.88080 | 11.34812 | 38282 ft | 458 kts | 325° |
| 2026-04-22 18:26 | 55.95434 | 11.23901 | 38270 ft | 458 kts | 325° |
| 2026-04-22 18:26 | 56.00336 | 11.16620 | 38276 ft | 459 kts | 325° |
| 2026-04-22 18:27 | 56.05237 | 11.09311 | 38278 ft | 459 kts | 325° |
| 2026-04-22 18:27 | 56.10130 | 11.01974 | 38257 ft | 459 kts | 325° |
| 2026-04-22 18:28 | 56.15015 | 10.94601 | 38274 ft | 459 kts | 325° |
| 2026-04-22 18:28 | 56.19899 | 10.87219 | 38278 ft | 459 kts | 325° |
| 2026-04-22 18:29 | 56.24781 | 10.79834 | 38283 ft | 459 kts | 325° |
| 2026-04-22 18:29 | 56.29663 | 10.72432 | 38293 ft | 459 kts | 324° |
| 2026-04-22 18:30 | 56.36980 | 10.61288 | 38292 ft | 459 kts | 324° |
| 2026-04-22 18:31 | 56.41850 | 10.53825 | 38286 ft | 459 kts | 325° |
| 2026-04-22 18:31 | 56.46703 | 10.46342 | 38290 ft | 459 kts | 325° |
| 2026-04-22 18:32 | 56.51557 | 10.38829 | 38278 ft | 459 kts | 324° |
| 2026-04-22 18:32 | 56.56406 | 10.31312 | 38283 ft | 459 kts | 324° |
| 2026-04-22 18:33 | 56.61226 | 10.23830 | 38291 ft | 459 kts | 324° |
| 2026-04-22 18:33 | 56.66076 | 10.16266 | 38293 ft | 459 kts | 324° |
| 2026-04-22 18:34 | 56.70923 | 10.08676 | 38274 ft | 460 kts | 324° |
| 2026-04-22 18:34 | 56.75760 | 10.01066 | 38290 ft | 459 kts | 324° |
| 2026-04-22 18:35 | 56.80590 | 9.93445 | 38278 ft | 459 kts | 323° |
| 2026-04-22 18:35 | 56.85424 | 9.85799 | 38289 ft | 460 kts | 323° |
| 2026-04-22 18:36 | 56.90265 | 9.78140 | 38292 ft | 460 kts | 323° |
| 2026-04-22 18:36 | 56.95094 | 9.70452 | 38294 ft | 460 kts | 323° |
| 2026-04-22 18:37 | 56.99918 | 9.62716 | 38291 ft | 461 kts | 323° |
| 2026-04-22 18:37 | 57.03928 | 9.56281 | 38288 ft | 460 kts | 323° |
| 2026-04-22 18:38 | 57.09560 | 9.47219 | 38282 ft | 460 kts | 323° |
| 2026-04-22 18:38 | 57.14368 | 9.39440 | 38283 ft | 461 kts | 323° |
| 2026-04-22 18:39 | 57.21587 | 9.27721 | 38287 ft | 461 kts | 323° |
| 2026-04-22 18:39 | 57.26398 | 9.19886 | 38287 ft | 461 kts | 323° |
| 2026-04-22 18:40 | 57.31208 | 9.12017 | 38286 ft | 461 kts | 322° |
| 2026-04-22 18:40 | 57.36001 | 9.04121 | 38283 ft | 461 kts | 323° |
| 2026-04-22 18:41 | 57.40766 | 8.96269 | 38266 ft | 461 kts | 322° |
| 2026-04-22 18:41 | 57.45557 | 8.88347 | 38266 ft | 461 kts | 322° |
| 2026-04-22 18:42 | 57.50374 | 8.80336 | 38272 ft | 462 kts | 322° |
| 2026-04-22 18:42 | 57.55129 | 8.72399 | 38269 ft | 462 kts | 322° |
| 2026-04-22 18:43 | 57.59913 | 8.64391 | 38264 ft | 462 kts | 322° |
| 2026-04-22 18:43 | 57.64695 | 8.56366 | 38257 ft | 462 kts | 322° |
| 2026-04-22 18:44 | 57.69468 | 8.48332 | 38259 ft | 462 kts | 321° |
| 2026-04-22 18:44 | 57.74232 | 8.40267 | 38256 ft | 462 kts | 321° |
| 2026-04-22 18:45 | 57.79000 | 8.32168 | 38255 ft | 463 kts | 321° |
| 2026-04-22 18:45 | 57.83766 | 8.24057 | 38257 ft | 463 kts | 321° |
| 2026-04-22 18:46 | 57.88527 | 8.15907 | 38257 ft | 463 kts | 321° |
| 2026-04-22 18:46 | 57.93281 | 8.07729 | 38259 ft | 463 kts | 321° |
| 2026-04-22 18:47 | 57.98035 | 7.99525 | 38258 ft | 463 kts | 321° |
| 2026-04-22 18:47 | 58.02776 | 7.91306 | 38255 ft | 463 kts | 320° |
| 2026-04-22 18:48 | 58.07533 | 7.83049 | 38258 ft | 464 kts | 320° |
| 2026-04-22 18:48 | 58.12281 | 7.74790 | 38261 ft | 464 kts | 320° |
| 2026-04-22 18:49 | 58.16991 | 7.66532 | 38265 ft | 464 kts | 320° |
| 2026-04-22 18:49 | 58.21754 | 7.58151 | 38272 ft | 464 kts | 320° |
| 2026-04-22 18:50 | 58.26459 | 7.49858 | 38275 ft | 464 kts | 320° |
| 2026-04-22 18:50 | 58.31195 | 7.41493 | 38284 ft | 464 kts | 320° |
| 2026-04-22 18:51 | 58.35922 | 7.33097 | 38299 ft | 465 kts | 319° |
| 2026-04-22 18:51 | 58.40640 | 7.24677 | 38305 ft | 465 kts | 319° |
| 2026-04-22 18:52 | 58.45361 | 7.16212 | 38313 ft | 465 kts | 319° |
| 2026-04-22 18:52 | 58.49277 | 7.09165 | 38309 ft | 465 kts | 319° |
| 2026-04-22 18:53 | 58.53988 | 7.00665 | 38329 ft | 466 kts | 319° |
| 2026-04-22 18:53 | 58.58702 | 6.92140 | 38015 ft | 467 kts | 319° |
| 2026-04-22 18:54 | 58.61096 | 6.87807 | 36761 ft | 477 kts | 319° |
| 2026-04-22 18:54 | 58.63522 | 6.83404 | 35627 ft | 481 kts | 319° |
| 2026-04-22 18:54 | 58.65945 | 6.78983 | 35174 ft | 478 kts | 319° |
| 2026-04-22 18:54 | 58.68342 | 6.74594 | 34666 ft | 475 kts | 319° |
| 2026-04-22 18:55 | 58.70728 | 6.70217 | 34112 ft | 474 kts | 319° |
| 2026-04-22 18:55 | 58.73108 | 6.65846 | 33436 ft | 473 kts | 319° |
| 2026-04-22 18:55 | 58.75490 | 6.61467 | 32742 ft | 473 kts | 319° |
| 2026-04-22 18:55 | 58.77875 | 6.57078 | 32070 ft | 473 kts | 318° |
| 2026-04-22 18:56 | 58.80250 | 6.52702 | 31432 ft | 472 kts | 318° |
| 2026-04-22 18:56 | 58.82614 | 6.48334 | 30788 ft | 470 kts | 318° |
| 2026-04-22 18:56 | 58.85076 | 6.44224 | 30111 ft | 465 kts | 328° |
| 2026-04-22 18:56 | 58.87894 | 6.41287 | 29353 ft | 458 kts | 338° |
| 2026-04-22 18:57 | 58.90776 | 6.38723 | 28525 ft | 451 kts | 338° |
| 2026-04-22 18:57 | 58.93587 | 6.36226 | 27733 ft | 438 kts | 338° |
| 2026-04-22 18:57 | 58.96319 | 6.33801 | 26982 ft | 426 kts | 338° |
| 2026-04-22 18:57 | 58.98990 | 6.31435 | 26220 ft | 416 kts | 338° |
| 2026-04-22 18:58 | 59.01556 | 6.29154 | 25513 ft | 407 kts | 338° |
| 2026-04-22 18:58 | 59.04109 | 6.26874 | 24798 ft | 400 kts | 338° |
| 2026-04-22 18:58 | 59.06614 | 6.24629 | 24109 ft | 393 kts | 337° |
| 2026-04-22 18:58 | 59.09110 | 6.22388 | 23308 ft | 386 kts | 337° |
| 2026-04-22 18:59 | 59.11494 | 6.20246 | 22515 ft | 380 kts | 337° |
| 2026-04-22 18:59 | 59.13892 | 6.18089 | 21740 ft | 382 kts | 337° |
| 2026-04-22 18:59 | 59.16313 | 6.15911 | 21072 ft | 384 kts | 337° |
| 2026-04-22 18:59 | 59.18745 | 6.13720 | 20445 ft | 385 kts | 337° |
| 2026-04-22 19:00 | 59.20389 | 6.12236 | 20034 ft | 386 kts | 337° |
| 2026-04-22 19:00 | 59.23616 | 6.09319 | 19245 ft | 386 kts | 336° |
| 2026-04-22 19:00 | 59.26050 | 6.07114 | 18658 ft | 385 kts | 335° |
| 2026-04-22 19:00 | 59.28475 | 6.04909 | 17990 ft | 384 kts | 336° |
| 2026-04-22 19:01 | 59.30888 | 6.02711 | 17336 ft | 382 kts | 336° |
| 2026-04-22 19:01 | 59.33293 | 6.00519 | 16691 ft | 380 kts | 336° |
| 2026-04-22 19:01 | 59.35677 | 5.98341 | 16055 ft | 377 kts | 335° |
| 2026-04-22 19:01 | 59.38043 | 5.96178 | 15445 ft | 374 kts | 335° |
| 2026-04-22 19:02 | 59.40396 | 5.94025 | 14849 ft | 371 kts | 335° |
| 2026-04-22 19:02 | 59.42722 | 5.91898 | 14254 ft | 367 kts | 335° |
| 2026-04-22 19:02 | 59.45025 | 5.89790 | 13600 ft | 364 kts | 335° |
| 2026-04-22 19:02 | 59.47306 | 5.87697 | 12939 ft | 360 kts | 335° |
| 2026-04-22 19:03 | 59.49564 | 5.85621 | 12311 ft | 356 kts | 335° |
| 2026-04-22 19:03 | 59.51799 | 5.83560 | 11691 ft | 353 kts | 335° |
| 2026-04-22 19:03 | 59.53986 | 5.81538 | 11422 ft | 339 kts | 335° |
| 2026-04-22 19:03 | 59.56070 | 5.79606 | 11347 ft | 322 kts | 335° |
| 2026-04-22 19:04 | 59.58045 | 5.77779 | 11113 ft | 302 kts | 335° |
| 2026-04-22 19:04 | 59.59885 | 5.76076 | 10906 ft | 283 kts | 335° |
| 2026-04-22 19:04 | 59.61642 | 5.74448 | 10686 ft | 277 kts | 335° |
| 2026-04-22 19:04 | 59.63381 | 5.72833 | 10406 ft | 275 kts | 335° |
| 2026-04-22 19:05 | 59.65114 | 5.71218 | 10085 ft | 275 kts | 335° |
| 2026-04-22 19:05 | 59.66845 | 5.69603 | 9692 ft | 275 kts | 335° |
| 2026-04-22 19:05 | 59.68552 | 5.68009 | 9315 ft | 274 kts | 335° |
| 2026-04-22 19:05 | 59.70277 | 5.66394 | 8930 ft | 274 kts | 335° |
| 2026-04-22 19:06 | 59.71999 | 5.64786 | 8547 ft | 273 kts | 335° |
| 2026-04-22 19:06 | 59.73718 | 5.63180 | 8170 ft | 273 kts | 335° |
| 2026-04-22 19:06 | 59.75431 | 5.61581 | 7799 ft | 272 kts | 335° |
| 2026-04-22 19:07 | 59.78840 | 5.58392 | 7083 ft | 270 kts | 335° |
| 2026-04-22 19:07 | 59.80537 | 5.56793 | 6716 ft | 269 kts | 335° |
| 2026-04-22 19:07 | 59.82225 | 5.55204 | 6328 ft | 268 kts | 336° |
| 2026-04-22 19:07 | 59.83908 | 5.53626 | 5943 ft | 267 kts | 336° |
| 2026-04-22 19:08 | 59.85589 | 5.52043 | 5561 ft | 266 kts | 336° |
| 2026-04-22 19:08 | 59.87257 | 5.50466 | 5186 ft | 265 kts | 336° |
| 2026-04-22 19:08 | 59.88924 | 5.48888 | 4788 ft | 266 kts | 336° |
| 2026-04-22 19:08 | 59.90591 | 5.47308 | 4403 ft | 265 kts | 336° |
| 2026-04-22 19:09 | 59.92260 | 5.45725 | 4050 ft | 265 kts | 335° |
| 2026-04-22 19:09 | 59.93891 | 5.44176 | 3996 ft | 254 kts | 336° |
| 2026-04-22 19:09 | 59.95465 | 5.42676 | 4013 ft | 249 kts | 336° |
| 2026-04-22 19:09 | 59.97026 | 5.41190 | 4003 ft | 249 kts | 336° |
| 2026-04-22 19:10 | 59.98597 | 5.39696 | 4007 ft | 250 kts | 336° |
| 2026-04-22 19:10 | 60.00164 | 5.38209 | 4002 ft | 248 kts | 336° |
| 2026-04-22 19:10 | 60.01723 | 5.36725 | 3670 ft | 248 kts | 336° |
| 2026-04-22 19:10 | 60.03252 | 5.35267 | 3280 ft | 240 kts | 335° |
| 2026-04-22 19:11 | 60.04723 | 5.33860 | 3019 ft | 226 kts | 335° |
| 2026-04-22 19:11 | 60.06065 | 5.32572 | 3002 ft | 202 kts | 335° |
| 2026-04-22 19:11 | 60.07278 | 5.31409 | 3012 ft | 183 kts | 337° |
| 2026-04-22 19:11 | 60.08346 | 5.30381 | 3008 ft | 163 kts | 337° |
| 2026-04-22 19:12 | 60.09314 | 5.29447 | 3006 ft | 146 kts | 337° |
| 2026-04-22 19:12 | 60.10192 | 5.28623 | 3020 ft | 136 kts | 341° |
| 2026-04-22 19:12 | 60.11085 | 5.28111 | 3017 ft | 135 kts | 348° |
| 2026-04-22 19:12 | 60.12052 | 5.27682 | 3018 ft | 147 kts | 349° |
| 2026-04-22 19:13 | 60.13064 | 5.27292 | 3016 ft | 149 kts | 351° |
| 2026-04-22 19:13 | 60.14085 | 5.26928 | 2965 ft | 150 kts | 351° |
| 2026-04-22 19:13 | 60.15109 | 5.26576 | 2836 ft | 148 kts | 352° |
| 2026-04-22 19:13 | 60.16122 | 5.26234 | 2643 ft | 148 kts | 352° |
| 2026-04-22 19:14 | 60.17137 | 5.25894 | 2458 ft | 147 kts | 351° |
| 2026-04-22 19:14 | 60.18146 | 5.25557 | 2257 ft | 147 kts | 351° |
| 2026-04-22 19:14 | 60.19151 | 5.25222 | 2063 ft | 146 kts | 351° |
| 2026-04-22 19:14 | 60.20146 | 5.24890 | 1856 ft | 141 kts | 351° |
| 2026-04-22 19:15 | 60.20770 | 5.24682 | 1723 ft | 134 kts | 351° |
| 2026-04-22 19:15 | 60.21975 | 5.24279 | 1482 ft | 129 kts | 351° |
| 2026-04-22 19:15 | 60.22857 | 5.23984 | 1308 ft | 128 kts | 350° |
| 2026-04-22 19:15 | 60.23729 | 5.23693 | 1131 ft | 126 kts | 350° |
| 2026-04-22 19:16 | 60.24605 | 5.23399 | 946 ft | 128 kts | 350° |
| 2026-04-22 19:16 | 60.25474 | 5.23122 | 761 ft | 126 kts | 349° |
| 2026-04-22 19:16 | 60.26352 | 5.22874 | 598 ft | 129 kts | 347° |
| 2026-04-22 19:16 | 60.27217 | 5.22520 | 392 ft | 129 kts | 347° |
| 2026-04-22 19:17 | 60.28092 | 5.22248 | 217 ft | 124 kts | 345° |
| 2026-04-22 19:17 | 60.28909 | 5.21953 | 163 ft | 103 kts | 346° |
| 2026-04-22 19:17 | 60.29343 | 5.21805 | 155 ft | 41 kts | 351° |
| 2026-04-22 19:17 | 60.29571 | 5.21728 | 148 ft | 21 kts | 353° |
| 2026-04-22 19:18 | 60.29702 | 5.21781 | 150 ft | 16 kts | 63° |
| 2026-04-22 19:18 | 60.29719 | 5.21903 | 148 ft | 1 kts | 79° |
| 2026-04-22 19:18 | 60.29723 | 5.21946 | 148 ft | 5 kts | 80° |
| 2026-04-22 19:18 | 60.29730 | 5.22032 | 148 ft | 7 kts | 81° |
| 2026-04-22 19:19 | 60.29712 | 5.22128 | 148 ft | 10 kts | 147° |
| 2026-04-22 19:19 | 60.29642 | 5.22160 | 148 ft | 11 kts | 174° |
| 2026-04-22 19:19 | 60.29566 | 5.22185 | 152 ft | 10 kts | 169° |
| 2026-04-22 19:19 | 60.29502 | 5.22208 | 156 ft | 9 kts | 171° |
| 2026-04-22 19:20 | 60.29443 | 5.22227 | 159 ft | 8 kts | 171° |
| 2026-04-22 19:20 | 60.29388 | 5.22245 | 161 ft | 8 kts | 171° |
| 2026-04-22 19:20 | 60.29336 | 5.22263 | 163 ft | 8 kts | 171° |
| 2026-04-22 19:20 | 60.29264 | 5.22287 | 165 ft | 12 kts | 170° |
| 2026-04-22 19:21 | 60.29181 | 5.22315 | 168 ft | 12 kts | 170° |
| 2026-04-22 19:21 | 60.29092 | 5.22345 | 167 ft | 13 kts | 171° |
| 2026-04-22 19:21 | 60.28988 | 5.22380 | 166 ft | 17 kts | 171° |
| 2026-04-22 19:21 | 60.28897 | 5.22410 | 167 ft | 11 kts | 171° |
| 2026-04-22 19:22 | 60.28838 | 5.22420 | 166 ft | 3 kts | 176° |
| 2026-04-22 19:22 | 60.28829 | 5.22448 | 167 ft | 1 kts | 99° |
| 2026-04-22 19:22 | 60.28830 | 5.22458 | 168 ft | 2 kts | 82° |
| 2026-04-22 19:22 | 60.28836 | 5.22487 | 170 ft | 2 kts | 66° |
| 2026-04-22 19:23 | 60.28841 | 5.22508 | 171 ft | 2 kts | 61° |
| 2026-04-22 19:23 | 60.28850 | 5.22538 | 173 ft | 3 kts | 59° |
| 2026-04-22 19:23 | 60.28857 | 5.22563 | 173 ft | 3 kts | 59° |
| 2026-04-22 19:23 | 60.28860 | 5.22573 | 173 ft | 0 kts | 59° |